sensor_id;sensor_type;location;lat;lon;timestamp;P1;durP1;ratioP1;P2;durP2;ratioP2
22270;SDS011;11304;53.520;10.104;2022-12-10T00:01:55;45.85;;;22.13;;
22270;SDS011;11304;53.520;10.104;2022-12-10T00:04:22;44.63;;;22.27;;
22270;SDS011;11304;53.520;10.104;2022-12-10T00:06:48;46.60;;;22.38;;
22270;SDS011;11304;53.520;10.104;2022-12-10T00:09:16;46.92;;;23.05;;
22270;SDS011;11304;53.520;10.104;2022-12-10T00:11:42;48.40;;;21.90;;
22270;SDS011;11304;53.520;10.104;2022-12-10T00:14:11;48.42;;;23.50;;
22270;SDS011;11304;53.520;10.104;2022-12-10T00:16:37;45.92;;;21.75;;
22270;SDS011;11304;53.520;10.104;2022-12-10T00:19:03;47.13;;;22.65;;
22270;SDS011;11304;53.520;10.104;2022-12-10T00:21:32;47.17;;;22.52;;
22270;SDS011;11304;53.520;10.104;2022-12-10T00:23:58;49.08;;;22.63;;
22270;SDS011;11304;53.520;10.104;2022-12-10T00:26:29;44.38;;;21.52;;
22270;SDS011;11304;53.520;10.104;2022-12-10T00:28:55;47.25;;;21.88;;
22270;SDS011;11304;53.520;10.104;2022-12-10T00:31:26;46.45;;;22.17;;
22270;SDS011;11304;53.520;10.104;2022-12-10T00:33:53;43.55;;;20.83;;
22270;SDS011;11304;53.520;10.104;2022-12-10T00:36:20;41.85;;;20.75;;
22270;SDS011;11304;53.520;10.104;2022-12-10T00:38:47;42.03;;;20.42;;
22270;SDS011;11304;53.520;10.104;2022-12-10T00:41:13;42.65;;;20.23;;
22270;SDS011;11304;53.520;10.104;2022-12-10T00:43:40;45.63;;;20.02;;
22270;SDS011;11304;53.520;10.104;2022-12-10T00:46:06;39.05;;;19.48;;
22270;SDS011;11304;53.520;10.104;2022-12-10T00:48:32;42.28;;;20.20;;
22270;SDS011;11304;53.520;10.104;2022-12-10T00:51:00;40.05;;;19.90;;
22270;SDS011;11304;53.520;10.104;2022-12-10T00:53:26;41.90;;;18.48;;
22270;SDS011;11304;53.520;10.104;2022-12-10T00:55:53;44.15;;;19.67;;
22270;SDS011;11304;53.520;10.104;2022-12-10T00:58:19;40.85;;;19.80;;
22270;SDS011;11304;53.520;10.104;2022-12-10T01:00:45;43.38;;;20.05;;
22270;SDS011;11304;53.520;10.104;2022-12-10T01:03:12;41.90;;;19.83;;
22270;SDS011;11304;53.520;10.104;2022-12-10T01:05:38;36.50;;;18.02;;
22270;SDS011;11304;53.520;10.104;2022-12-10T01:08:04;39.58;;;17.52;;
22270;SDS011;11304;53.520;10.104;2022-12-10T01:10:30;36.83;;;17.48;;
22270;SDS011;11304;53.520;10.104;2022-12-10T01:12:56;38.38;;;17.83;;
22270;SDS011;11304;53.520;10.104;2022-12-10T01:15:23;33.08;;;16.67;;
22270;SDS011;11304;53.520;10.104;2022-12-10T01:17:49;32.08;;;15.80;;
22270;SDS011;11304;53.520;10.104;2022-12-10T01:20:15;34.15;;;17.65;;
22270;SDS011;11304;53.520;10.104;2022-12-10T01:22:41;31.85;;;16.77;;
22270;SDS011;11304;53.520;10.104;2022-12-10T01:25:08;34.15;;;16.30;;
22270;SDS011;11304;53.520;10.104;2022-12-10T01:27:34;30.98;;;15.88;;
22270;SDS011;11304;53.520;10.104;2022-12-10T01:30:02;31.58;;;16.13;;
22270;SDS011;11304;53.520;10.104;2022-12-10T01:32:28;28.92;;;15.25;;
22270;SDS011;11304;53.520;10.104;2022-12-10T01:34:54;32.30;;;15.68;;
22270;SDS011;11304;53.520;10.104;2022-12-10T01:37:21;34.90;;;16.75;;
22270;SDS011;11304;53.520;10.104;2022-12-10T01:39:47;31.92;;;16.58;;
22270;SDS011;11304;53.520;10.104;2022-12-10T01:42:13;30.90;;;16.05;;
22270;SDS011;11304;53.520;10.104;2022-12-10T01:47:08;29.02;;;14.70;;
22270;SDS011;11304;53.520;10.104;2022-12-10T01:49:36;31.90;;;15.43;;
22270;SDS011;11304;53.520;10.104;2022-12-10T01:52:03;31.42;;;16.48;;
22270;SDS011;11304;53.520;10.104;2022-12-10T01:54:31;30.20;;;15.27;;
22270;SDS011;11304;53.520;10.104;2022-12-10T01:56:59;31.53;;;15.70;;
22270;SDS011;11304;53.520;10.104;2022-12-10T01:59:25;31.88;;;16.55;;
22270;SDS011;11304;53.520;10.104;2022-12-10T02:01:59;28.58;;;14.82;;
22270;SDS011;11304;53.520;10.104;2022-12-10T02:04:36;26.33;;;14.63;;
22270;SDS011;11304;53.520;10.104;2022-12-10T02:07:09;32.47;;;16.10;;
22270;SDS011;11304;53.520;10.104;2022-12-10T02:14:50;33.17;;;16.67;;
22270;SDS011;11304;53.520;10.104;2022-12-10T02:17:19;34.58;;;15.55;;
22270;SDS011;11304;53.520;10.104;2022-12-10T02:22:18;34.13;;;17.02;;
22270;SDS011;11304;53.520;10.104;2022-12-10T02:24:46;34.67;;;16.65;;
22270;SDS011;11304;53.520;10.104;2022-12-10T02:29:49;32.70;;;16.63;;
22270;SDS011;11304;53.520;10.104;2022-12-10T02:32:21;32.90;;;15.63;;
22270;SDS011;11304;53.520;10.104;2022-12-10T02:34:53;31.42;;;15.68;;
22270;SDS011;11304;53.520;10.104;2022-12-10T02:39:53;35.00;;;16.15;;
22270;SDS011;11304;53.520;10.104;2022-12-10T02:42:20;31.95;;;15.60;;
22270;SDS011;11304;53.520;10.104;2022-12-10T02:44:47;30.88;;;15.45;;
22270;SDS011;11304;53.520;10.104;2022-12-10T02:47:15;34.00;;;16.75;;
22270;SDS011;11304;53.520;10.104;2022-12-10T02:49:42;30.97;;;15.60;;
22270;SDS011;11304;53.520;10.104;2022-12-10T02:52:09;31.17;;;15.35;;
22270;SDS011;11304;53.520;10.104;2022-12-10T02:54:41;32.47;;;15.95;;
22270;SDS011;11304;53.520;10.104;2022-12-10T02:57:17;31.60;;;15.65;;
22270;SDS011;11304;53.520;10.104;2022-12-10T03:00:00;30.98;;;16.60;;
22270;SDS011;11304;53.520;10.104;2022-12-10T03:02:35;25.13;;;13.02;;
22270;SDS011;11304;53.520;10.104;2022-12-10T03:05:15;23.60;;;12.80;;
22270;SDS011;11304;53.520;10.104;2022-12-10T03:07:51;25.48;;;13.30;;
22270;SDS011;11304;53.520;10.104;2022-12-10T03:13:09;25.05;;;13.05;;
22270;SDS011;11304;53.520;10.104;2022-12-10T03:15:37;24.70;;;12.27;;
22270;SDS011;11304;53.520;10.104;2022-12-10T03:18:04;19.52;;;11.05;;
22270;SDS011;11304;53.520;10.104;2022-12-10T03:20:32;19.55;;;10.27;;
22270;SDS011;11304;53.520;10.104;2022-12-10T03:22:59;14.73;;;8.25;;
22270;SDS011;11304;53.520;10.104;2022-12-10T03:25:27;17.63;;;10.40;;
22270;SDS011;11304;53.520;10.104;2022-12-10T03:27:55;15.95;;;9.52;;
22270;SDS011;11304;53.520;10.104;2022-12-10T03:30:23;16.33;;;9.82;;
22270;SDS011;11304;53.520;10.104;2022-12-10T03:32:50;17.52;;;10.98;;
22270;SDS011;11304;53.520;10.104;2022-12-10T03:35:17;15.52;;;9.27;;
22270;SDS011;11304;53.520;10.104;2022-12-10T03:37:44;21.88;;;11.73;;
22270;SDS011;11304;53.520;10.104;2022-12-10T03:40:11;20.30;;;12.00;;
22270;SDS011;11304;53.520;10.104;2022-12-10T03:42:38;18.05;;;10.90;;
22270;SDS011;11304;53.520;10.104;2022-12-10T03:45:04;19.73;;;10.57;;
22270;SDS011;11304;53.520;10.104;2022-12-10T03:47:30;18.70;;;11.27;;
22270;SDS011;11304;53.520;10.104;2022-12-10T03:49:56;17.92;;;10.88;;
22270;SDS011;11304;53.520;10.104;2022-12-10T03:52:22;19.05;;;11.65;;
22270;SDS011;11304;53.520;10.104;2022-12-10T03:54:48;17.45;;;10.25;;
22270;SDS011;11304;53.520;10.104;2022-12-10T03:57:14;17.88;;;10.25;;
22270;SDS011;11304;53.520;10.104;2022-12-10T03:59:41;17.83;;;10.00;;
22270;SDS011;11304;53.520;10.104;2022-12-10T04:02:07;16.13;;;9.40;;
22270;SDS011;11304;53.520;10.104;2022-12-10T04:04:33;15.88;;;9.50;;
22270;SDS011;11304;53.520;10.104;2022-12-10T04:06:59;18.92;;;10.43;;
22270;SDS011;11304;53.520;10.104;2022-12-10T04:09:25;19.33;;;10.75;;
22270;SDS011;11304;53.520;10.104;2022-12-10T04:11:54;16.13;;;10.23;;
22270;SDS011;11304;53.520;10.104;2022-12-10T04:14:20;16.35;;;9.68;;
22270;SDS011;11304;53.520;10.104;2022-12-10T04:17:05;17.48;;;10.05;;
22270;SDS011;11304;53.520;10.104;2022-12-10T04:19:31;15.73;;;9.98;;
22270;SDS011;11304;53.520;10.104;2022-12-10T04:21:57;16.25;;;9.15;;
22270;SDS011;11304;53.520;10.104;2022-12-10T04:24:42;15.73;;;9.88;;
22270;SDS011;11304;53.520;10.104;2022-12-10T04:27:34;16.88;;;9.65;;
22270;SDS011;11304;53.520;10.104;2022-12-10T04:30:01;16.60;;;10.68;;
22270;SDS011;11304;53.520;10.104;2022-12-10T04:32:28;16.63;;;10.10;;
22270;SDS011;11304;53.520;10.104;2022-12-10T04:34:54;17.05;;;10.02;;
22270;SDS011;11304;53.520;10.104;2022-12-10T04:37:21;17.45;;;10.15;;
22270;SDS011;11304;53.520;10.104;2022-12-10T04:39:48;16.30;;;9.38;;
22270;SDS011;11304;53.520;10.104;2022-12-10T04:42:15;14.55;;;9.23;;
22270;SDS011;11304;53.520;10.104;2022-12-10T04:44:41;16.55;;;10.18;;
22270;SDS011;11304;53.520;10.104;2022-12-10T04:47:08;13.13;;;8.48;;
22270;SDS011;11304;53.520;10.104;2022-12-10T04:49:34;16.55;;;9.18;;
22270;SDS011;11304;53.520;10.104;2022-12-10T04:52:00;14.23;;;8.18;;
22270;SDS011;11304;53.520;10.104;2022-12-10T04:54:26;14.27;;;8.75;;
22270;SDS011;11304;53.520;10.104;2022-12-10T04:56:53;13.45;;;7.65;;
22270;SDS011;11304;53.520;10.104;2022-12-10T04:59:19;14.15;;;8.43;;
22270;SDS011;11304;53.520;10.104;2022-12-10T05:01:45;12.38;;;8.07;;
22270;SDS011;11304;53.520;10.104;2022-12-10T05:04:13;14.90;;;8.45;;
22270;SDS011;11304;53.520;10.104;2022-12-10T05:06:39;14.07;;;8.45;;
22270;SDS011;11304;53.520;10.104;2022-12-10T05:09:06;16.35;;;10.20;;
22270;SDS011;11304;53.520;10.104;2022-12-10T05:11:32;16.30;;;10.02;;
22270;SDS011;11304;53.520;10.104;2022-12-10T05:13:58;16.23;;;9.75;;
22270;SDS011;11304;53.520;10.104;2022-12-10T05:16:26;14.68;;;8.82;;
22270;SDS011;11304;53.520;10.104;2022-12-10T05:18:53;16.15;;;9.20;;
22270;SDS011;11304;53.520;10.104;2022-12-10T05:21:19;12.30;;;7.90;;
22270;SDS011;11304;53.520;10.104;2022-12-10T05:23:48;16.08;;;9.23;;
22270;SDS011;11304;53.520;10.104;2022-12-10T05:28:44;15.07;;;8.45;;
22270;SDS011;11304;53.520;10.104;2022-12-10T05:31:12;13.02;;;7.85;;
22270;SDS011;11304;53.520;10.104;2022-12-10T05:33:38;14.55;;;8.52;;
22270;SDS011;11304;53.520;10.104;2022-12-10T05:36:04;12.82;;;8.52;;
22270;SDS011;11304;53.520;10.104;2022-12-10T05:38:31;11.95;;;7.47;;
22270;SDS011;11304;53.520;10.104;2022-12-10T05:41:04;13.20;;;7.53;;
22270;SDS011;11304;53.520;10.104;2022-12-10T05:43:30;12.13;;;7.43;;
22270;SDS011;11304;53.520;10.104;2022-12-10T05:46:04;13.82;;;7.93;;
22270;SDS011;11304;53.520;10.104;2022-12-10T05:48:30;13.18;;;7.57;;
22270;SDS011;11304;53.520;10.104;2022-12-10T05:50:56;14.35;;;8.73;;
22270;SDS011;11304;53.520;10.104;2022-12-10T05:53:23;14.13;;;7.53;;
22270;SDS011;11304;53.520;10.104;2022-12-10T05:55:49;12.02;;;7.25;;
22270;SDS011;11304;53.520;10.104;2022-12-10T05:58:15;14.32;;;7.53;;
22270;SDS011;11304;53.520;10.104;2022-12-10T06:00:41;13.23;;;6.53;;
22270;SDS011;11304;53.520;10.104;2022-12-10T06:03:08;10.60;;;6.20;;
22270;SDS011;11304;53.520;10.104;2022-12-10T06:05:38;10.77;;;6.40;;
22270;SDS011;11304;53.520;10.104;2022-12-10T06:08:04;13.25;;;7.15;;
22270;SDS011;11304;53.520;10.104;2022-12-10T06:10:31;14.00;;;7.38;;
22270;SDS011;11304;53.520;10.104;2022-12-10T06:12:59;12.32;;;7.15;;
22270;SDS011;11304;53.520;10.104;2022-12-10T06:15:25;11.32;;;7.20;;
22270;SDS011;11304;53.520;10.104;2022-12-10T06:17:51;11.48;;;6.82;;
22270;SDS011;11304;53.520;10.104;2022-12-10T06:20:17;11.85;;;8.07;;
22270;SDS011;11304;53.520;10.104;2022-12-10T06:22:43;11.98;;;7.25;;
22270;SDS011;11304;53.520;10.104;2022-12-10T06:25:09;11.65;;;6.78;;
22270;SDS011;11304;53.520;10.104;2022-12-10T06:27:35;11.15;;;7.10;;
22270;SDS011;11304;53.520;10.104;2022-12-10T06:30:02;10.57;;;6.63;;
22270;SDS011;11304;53.520;10.104;2022-12-10T06:32:28;15.75;;;8.85;;
22270;SDS011;11304;53.520;10.104;2022-12-10T06:34:54;11.85;;;7.68;;
22270;SDS011;11304;53.520;10.104;2022-12-10T06:37:20;10.15;;;6.80;;
22270;SDS011;11304;53.520;10.104;2022-12-10T06:39:46;10.52;;;6.65;;
22270;SDS011;11304;53.520;10.104;2022-12-10T06:42:12;11.70;;;6.85;;
22270;SDS011;11304;53.520;10.104;2022-12-10T06:44:39;11.35;;;7.15;;
22270;SDS011;11304;53.520;10.104;2022-12-10T06:47:05;11.55;;;6.85;;
22270;SDS011;11304;53.520;10.104;2022-12-10T06:49:31;10.15;;;6.47;;
22270;SDS011;11304;53.520;10.104;2022-12-10T06:51:57;9.38;;;6.57;;
22270;SDS011;11304;53.520;10.104;2022-12-10T06:54:23;9.02;;;6.18;;
22270;SDS011;11304;53.520;10.104;2022-12-10T06:56:49;9.55;;;6.43;;
22270;SDS011;11304;53.520;10.104;2022-12-10T06:59:15;14.95;;;8.40;;
22270;SDS011;11304;53.520;10.104;2022-12-10T07:01:41;13.43;;;8.15;;
22270;SDS011;11304;53.520;10.104;2022-12-10T07:04:07;12.57;;;7.80;;
22270;SDS011;11304;53.520;10.104;2022-12-10T07:06:34;11.15;;;7.07;;
22270;SDS011;11304;53.520;10.104;2022-12-10T07:09:00;10.07;;;6.45;;
22270;SDS011;11304;53.520;10.104;2022-12-10T07:11:26;13.27;;;8.05;;
22270;SDS011;11304;53.520;10.104;2022-12-10T07:13:52;14.80;;;7.40;;
22270;SDS011;11304;53.520;10.104;2022-12-10T07:16:23;11.88;;;7.35;;
22270;SDS011;11304;53.520;10.104;2022-12-10T07:18:50;11.38;;;6.53;;
22270;SDS011;11304;53.520;10.104;2022-12-10T07:21:23;9.98;;;6.43;;
22270;SDS011;11304;53.520;10.104;2022-12-10T07:23:50;10.85;;;6.50;;
22270;SDS011;11304;53.520;10.104;2022-12-10T07:26:16;9.35;;;6.28;;
22270;SDS011;11304;53.520;10.104;2022-12-10T07:28:42;12.43;;;8.18;;
22270;SDS011;11304;53.520;10.104;2022-12-10T07:31:09;14.60;;;8.02;;
22270;SDS011;11304;53.520;10.104;2022-12-10T07:33:35;10.73;;;7.35;;
22270;SDS011;11304;53.520;10.104;2022-12-10T07:36:09;14.38;;;9.20;;
22270;SDS011;11304;53.520;10.104;2022-12-10T07:38:35;10.07;;;6.57;;
22270;SDS011;11304;53.520;10.104;2022-12-10T07:41:03;10.70;;;6.82;;
22270;SDS011;11304;53.520;10.104;2022-12-10T07:43:29;10.65;;;6.65;;
22270;SDS011;11304;53.520;10.104;2022-12-10T07:45:55;12.55;;;7.40;;
22270;SDS011;11304;53.520;10.104;2022-12-10T07:48:21;10.60;;;6.50;;
22270;SDS011;11304;53.520;10.104;2022-12-10T07:50:51;11.80;;;7.30;;
22270;SDS011;11304;53.520;10.104;2022-12-10T07:53:20;11.35;;;6.30;;
22270;SDS011;11304;53.520;10.104;2022-12-10T07:55:46;12.63;;;7.15;;
22270;SDS011;11304;53.520;10.104;2022-12-10T07:58:12;14.20;;;8.05;;
22270;SDS011;11304;53.520;10.104;2022-12-10T08:00:38;13.25;;;7.70;;
22270;SDS011;11304;53.520;10.104;2022-12-10T08:03:05;11.07;;;6.70;;
22270;SDS011;11304;53.520;10.104;2022-12-10T08:05:31;12.35;;;7.07;;
22270;SDS011;11304;53.520;10.104;2022-12-10T08:07:57;11.93;;;7.63;;
22270;SDS011;11304;53.520;10.104;2022-12-10T08:10:23;12.02;;;7.60;;
22270;SDS011;11304;53.520;10.104;2022-12-10T08:12:49;11.82;;;7.53;;
22270;SDS011;11304;53.520;10.104;2022-12-10T08:15:15;13.15;;;7.95;;
22270;SDS011;11304;53.520;10.104;2022-12-10T08:17:41;14.20;;;8.60;;
22270;SDS011;11304;53.520;10.104;2022-12-10T08:20:07;16.77;;;9.85;;
22270;SDS011;11304;53.520;10.104;2022-12-10T08:22:34;15.70;;;9.23;;
22270;SDS011;11304;53.520;10.104;2022-12-10T08:25:01;14.63;;;10.00;;
22270;SDS011;11304;53.520;10.104;2022-12-10T08:27:27;14.30;;;9.27;;
22270;SDS011;11304;53.520;10.104;2022-12-10T08:29:53;16.42;;;9.63;;
22270;SDS011;11304;53.520;10.104;2022-12-10T08:32:19;15.68;;;8.90;;
22270;SDS011;11304;53.520;10.104;2022-12-10T08:34:45;14.25;;;8.93;;
22270;SDS011;11304;53.520;10.104;2022-12-10T08:37:12;15.13;;;9.50;;
22270;SDS011;11304;53.520;10.104;2022-12-10T08:39:38;13.27;;;8.98;;
22270;SDS011;11304;53.520;10.104;2022-12-10T08:42:05;13.25;;;7.88;;
22270;SDS011;11304;53.520;10.104;2022-12-10T08:44:31;14.07;;;7.38;;
22270;SDS011;11304;53.520;10.104;2022-12-10T08:46:57;11.52;;;6.45;;
22270;SDS011;11304;53.520;10.104;2022-12-10T08:49:23;10.70;;;7.13;;
22270;SDS011;11304;53.520;10.104;2022-12-10T08:51:49;9.75;;;6.80;;
22270;SDS011;11304;53.520;10.104;2022-12-10T08:54:15;10.38;;;6.55;;
22270;SDS011;11304;53.520;10.104;2022-12-10T08:56:41;12.40;;;7.85;;
22270;SDS011;11304;53.520;10.104;2022-12-10T08:59:07;10.43;;;6.80;;
22270;SDS011;11304;53.520;10.104;2022-12-10T09:01:33;12.05;;;6.22;;
22270;SDS011;11304;53.520;10.104;2022-12-10T09:03:59;8.85;;;5.80;;
22270;SDS011;11304;53.520;10.104;2022-12-10T09:06:27;9.27;;;5.85;;
22270;SDS011;11304;53.520;10.104;2022-12-10T09:08:54;10.55;;;6.82;;
22270;SDS011;11304;53.520;10.104;2022-12-10T09:11:22;9.00;;;6.70;;
22270;SDS011;11304;53.520;10.104;2022-12-10T09:13:48;11.40;;;7.00;;
22270;SDS011;11304;53.520;10.104;2022-12-10T09:16:15;12.00;;;6.18;;
22270;SDS011;11304;53.520;10.104;2022-12-10T09:18:41;11.77;;;7.00;;
22270;SDS011;11304;53.520;10.104;2022-12-10T09:21:08;10.45;;;6.65;;
22270;SDS011;11304;53.520;10.104;2022-12-10T09:23:34;11.75;;;7.53;;
22270;SDS011;11304;53.520;10.104;2022-12-10T09:26:01;10.93;;;7.40;;
22270;SDS011;11304;53.520;10.104;2022-12-10T09:28:27;14.25;;;7.78;;
22270;SDS011;11304;53.520;10.104;2022-12-10T09:30:56;12.07;;;7.78;;
22270;SDS011;11304;53.520;10.104;2022-12-10T09:33:23;11.35;;;7.40;;
22270;SDS011;11304;53.520;10.104;2022-12-10T09:35:49;12.25;;;7.90;;
22270;SDS011;11304;53.520;10.104;2022-12-10T09:38:15;10.40;;;7.20;;
22270;SDS011;11304;53.520;10.104;2022-12-10T09:40:44;11.80;;;7.32;;
22270;SDS011;11304;53.520;10.104;2022-12-10T09:46:16;11.52;;;6.70;;
22270;SDS011;11304;53.520;10.104;2022-12-10T09:48:54;11.68;;;6.57;;
22270;SDS011;11304;53.520;10.104;2022-12-10T09:51:35;9.85;;;6.10;;
22270;SDS011;11304;53.520;10.104;2022-12-10T09:54:02;10.00;;;6.63;;
22270;SDS011;11304;53.520;10.104;2022-12-10T09:56:31;10.85;;;6.78;;
22270;SDS011;11304;53.520;10.104;2022-12-10T09:58:59;10.32;;;6.88;;
22270;SDS011;11304;53.520;10.104;2022-12-10T10:01:27;10.85;;;6.72;;
22270;SDS011;11304;53.520;10.104;2022-12-10T10:03:53;12.15;;;7.07;;
22270;SDS011;11304;53.520;10.104;2022-12-10T10:06:19;11.75;;;7.60;;
22270;SDS011;11304;53.520;10.104;2022-12-10T10:08:53;14.35;;;8.40;;
22270;SDS011;11304;53.520;10.104;2022-12-10T10:11:25;12.75;;;8.60;;
22270;SDS011;11304;53.520;10.104;2022-12-10T10:14:15;13.10;;;7.40;;
22270;SDS011;11304;53.520;10.104;2022-12-10T10:16:49;13.88;;;8.07;;
22270;SDS011;11304;53.520;10.104;2022-12-10T10:21:47;11.25;;;7.32;;
22270;SDS011;11304;53.520;10.104;2022-12-10T10:24:24;10.60;;;7.30;;
22270;SDS011;11304;53.520;10.104;2022-12-10T10:26:52;13.52;;;7.57;;
22270;SDS011;11304;53.520;10.104;2022-12-10T10:29:22;12.15;;;9.02;;
22270;SDS011;11304;53.520;10.104;2022-12-10T10:32:10;15.13;;;9.10;;
22270;SDS011;11304;53.520;10.104;2022-12-10T10:34:36;12.80;;;8.23;;
22270;SDS011;11304;53.520;10.104;2022-12-10T10:37:04;12.05;;;7.05;;
22270;SDS011;11304;53.520;10.104;2022-12-10T10:39:31;12.77;;;8.45;;
22270;SDS011;11304;53.520;10.104;2022-12-10T10:41:58;16.30;;;10.35;;
22270;SDS011;11304;53.520;10.104;2022-12-10T10:44:32;13.82;;;9.07;;
22270;SDS011;11304;53.520;10.104;2022-12-10T10:46:59;13.70;;;9.00;;
22270;SDS011;11304;53.520;10.104;2022-12-10T10:49:26;13.55;;;8.70;;
22270;SDS011;11304;53.520;10.104;2022-12-10T10:54:31;14.55;;;9.02;;
22270;SDS011;11304;53.520;10.104;2022-12-10T10:56:57;13.00;;;8.63;;
22270;SDS011;11304;53.520;10.104;2022-12-10T10:59:30;14.32;;;9.38;;
22270;SDS011;11304;53.520;10.104;2022-12-10T11:01:59;14.93;;;9.98;;
22270;SDS011;11304;53.520;10.104;2022-12-10T11:07:01;14.45;;;9.18;;
22270;SDS011;11304;53.520;10.104;2022-12-10T11:09:29;13.75;;;8.60;;
22270;SDS011;11304;53.520;10.104;2022-12-10T11:12:00;13.25;;;8.55;;
22270;SDS011;11304;53.520;10.104;2022-12-10T11:14:30;14.10;;;9.50;;
22270;SDS011;11304;53.520;10.104;2022-12-10T11:17:17;10.25;;;7.65;;
22270;SDS011;11304;53.520;10.104;2022-12-10T11:22:28;13.32;;;8.35;;
22270;SDS011;11304;53.520;10.104;2022-12-10T11:24:54;12.50;;;7.57;;
22270;SDS011;11304;53.520;10.104;2022-12-10T11:37:57;13.68;;;9.13;;
22270;SDS011;11304;53.520;10.104;2022-12-10T11:40:30;14.93;;;9.35;;
22270;SDS011;11304;53.520;10.104;2022-12-10T11:50:46;13.15;;;9.30;;
22270;SDS011;11304;53.520;10.104;2022-12-10T11:55:55;12.43;;;8.48;;
22270;SDS011;11304;53.520;10.104;2022-12-10T12:14:14;12.32;;;8.00;;
22270;SDS011;11304;53.520;10.104;2022-12-10T12:16:44;11.65;;;7.95;;
22270;SDS011;11304;53.520;10.104;2022-12-10T12:19:13;13.75;;;8.65;;
22270;SDS011;11304;53.520;10.104;2022-12-10T12:21:40;14.80;;;8.02;;
22270;SDS011;11304;53.520;10.104;2022-12-10T12:24:09;15.18;;;9.23;;
22270;SDS011;11304;53.520;10.104;2022-12-10T12:26:50;14.02;;;8.82;;
22270;SDS011;11304;53.520;10.104;2022-12-10T12:29:33;14.10;;;8.85;;
22270;SDS011;11304;53.520;10.104;2022-12-10T12:34:46;12.10;;;7.85;;
22270;SDS011;11304;53.520;10.104;2022-12-10T12:37:14;16.67;;;9.80;;
22270;SDS011;11304;53.520;10.104;2022-12-10T12:39:43;15.32;;;9.18;;
22270;SDS011;11304;53.520;10.104;2022-12-10T12:42:21;15.07;;;9.48;;
22270;SDS011;11304;53.520;10.104;2022-12-10T12:47:43;15.98;;;9.93;;
22270;SDS011;11304;53.520;10.104;2022-12-10T12:50:37;16.20;;;9.15;;
22270;SDS011;11304;53.520;10.104;2022-12-10T12:52:58;14.15;;;8.48;;
22270;SDS011;11304;53.520;10.104;2022-12-10T12:55:32;14.75;;;9.88;;
22270;SDS011;11304;53.520;10.104;2022-12-10T12:58:11;13.98;;;9.30;;
22270;SDS011;11304;53.520;10.104;2022-12-10T13:00:40;15.40;;;10.10;;
22270;SDS011;11304;53.520;10.104;2022-12-10T13:03:29;14.73;;;8.90;;
22270;SDS011;11304;53.520;10.104;2022-12-10T13:06:11;16.88;;;10.02;;
22270;SDS011;11304;53.520;10.104;2022-12-10T13:08:44;15.80;;;9.60;;
22270;SDS011;11304;53.520;10.104;2022-12-10T13:13:38;15.30;;;9.73;;
22270;SDS011;11304;53.520;10.104;2022-12-10T13:18:53;13.73;;;9.57;;
22270;SDS011;11304;53.520;10.104;2022-12-10T13:21:35;16.70;;;10.20;;
22270;SDS011;11304;53.520;10.104;2022-12-10T13:24:25;18.58;;;11.45;;
22270;SDS011;11304;53.520;10.104;2022-12-10T13:27:18;15.13;;;10.30;;
22270;SDS011;11304;53.520;10.104;2022-12-10T13:37:33;17.85;;;11.75;;
22270;SDS011;11304;53.520;10.104;2022-12-10T13:47:55;17.25;;;10.32;;
22270;SDS011;11304;53.520;10.104;2022-12-10T13:51:16;17.67;;;10.63;;
22270;SDS011;11304;53.520;10.104;2022-12-10T13:53:57;17.35;;;11.18;;
22270;SDS011;11304;53.520;10.104;2022-12-10T13:58:53;19.13;;;12.10;;
22270;SDS011;11304;53.520;10.104;2022-12-10T14:01:36;17.52;;;11.38;;
22270;SDS011;11304;53.520;10.104;2022-12-10T14:06:37;20.02;;;12.73;;
22270;SDS011;11304;53.520;10.104;2022-12-10T14:11:52;17.52;;;11.55;;
22270;SDS011;11304;53.520;10.104;2022-12-10T14:14:22;19.38;;;11.77;;
22270;SDS011;11304;53.520;10.104;2022-12-10T14:16:49;18.80;;;12.30;;
22270;SDS011;11304;53.520;10.104;2022-12-10T14:19:15;18.60;;;11.57;;
22270;SDS011;11304;53.520;10.104;2022-12-10T14:21:42;16.58;;;10.98;;
22270;SDS011;11304;53.520;10.104;2022-12-10T14:26:58;17.65;;;11.10;;
22270;SDS011;11304;53.520;10.104;2022-12-10T14:29:24;16.50;;;10.27;;
22270;SDS011;11304;53.520;10.104;2022-12-10T14:31:50;19.45;;;12.52;;
22270;SDS011;11304;53.520;10.104;2022-12-10T14:34:24;17.15;;;11.32;;
22270;SDS011;11304;53.520;10.104;2022-12-10T14:36:51;17.20;;;10.93;;
22270;SDS011;11304;53.520;10.104;2022-12-10T14:39:21;20.10;;;12.13;;
22270;SDS011;11304;53.520;10.104;2022-12-10T14:41:50;18.60;;;11.80;;
22270;SDS011;11304;53.520;10.104;2022-12-10T14:44:17;17.67;;;11.05;;
22270;SDS011;11304;53.520;10.104;2022-12-10T14:46:44;19.48;;;11.93;;
22270;SDS011;11304;53.520;10.104;2022-12-10T14:49:16;20.30;;;11.98;;
22270;SDS011;11304;53.520;10.104;2022-12-10T14:51:43;18.23;;;11.25;;
22270;SDS011;11304;53.520;10.104;2022-12-10T14:54:23;18.60;;;11.40;;
22270;SDS011;11304;53.520;10.104;2022-12-10T14:56:49;19.35;;;12.13;;
22270;SDS011;11304;53.520;10.104;2022-12-10T14:59:24;19.23;;;11.45;;
22270;SDS011;11304;53.520;10.104;2022-12-10T15:01:55;17.80;;;10.57;;
22270;SDS011;11304;53.520;10.104;2022-12-10T15:04:23;18.13;;;11.35;;
22270;SDS011;11304;53.520;10.104;2022-12-10T15:06:50;21.58;;;13.40;;
22270;SDS011;11304;53.520;10.104;2022-12-10T15:09:19;21.73;;;13.07;;
22270;SDS011;11304;53.520;10.104;2022-12-10T15:14:15;17.00;;;10.35;;
22270;SDS011;11304;53.520;10.104;2022-12-10T15:16:42;20.02;;;12.63;;
22270;SDS011;11304;53.520;10.104;2022-12-10T15:19:19;17.48;;;10.98;;
22270;SDS011;11304;53.520;10.104;2022-12-10T15:21:46;16.73;;;11.35;;
22270;SDS011;11304;53.520;10.104;2022-12-10T15:24:20;17.63;;;11.68;;
22270;SDS011;11304;53.520;10.104;2022-12-10T15:26:48;18.77;;;11.95;;
22270;SDS011;11304;53.520;10.104;2022-12-10T15:31:54;18.58;;;12.52;;
22270;SDS011;11304;53.520;10.104;2022-12-10T15:34:20;20.25;;;12.60;;
22270;SDS011;11304;53.520;10.104;2022-12-10T15:39:20;16.48;;;11.23;;
22270;SDS011;11304;53.520;10.104;2022-12-10T15:41:56;16.83;;;11.30;;
22270;SDS011;11304;53.520;10.104;2022-12-10T15:46:49;18.60;;;11.60;;
22270;SDS011;11304;53.520;10.104;2022-12-10T15:49:16;19.73;;;12.82;;
22270;SDS011;11304;53.520;10.104;2022-12-10T15:51:42;16.42;;;11.18;;
22270;SDS011;11304;53.520;10.104;2022-12-10T15:54:22;17.02;;;10.57;;
22270;SDS011;11304;53.520;10.104;2022-12-10T15:56:48;16.80;;;10.73;;
22270;SDS011;11304;53.520;10.104;2022-12-10T15:59:14;16.95;;;10.73;;
22270;SDS011;11304;53.520;10.104;2022-12-10T16:01:40;18.50;;;11.90;;
22270;SDS011;11304;53.520;10.104;2022-12-10T16:04:06;18.67;;;10.68;;
22270;SDS011;11304;53.520;10.104;2022-12-10T16:06:33;17.70;;;11.48;;
22270;SDS011;11304;53.520;10.104;2022-12-10T16:08:59;16.85;;;11.10;;
22270;SDS011;11304;53.520;10.104;2022-12-10T16:11:25;16.25;;;11.07;;
22270;SDS011;11304;53.520;10.104;2022-12-10T16:13:52;18.38;;;11.50;;
22270;SDS011;11304;53.520;10.104;2022-12-10T16:16:20;16.38;;;10.88;;
22270;SDS011;11304;53.520;10.104;2022-12-10T16:18:46;20.85;;;12.20;;
22270;SDS011;11304;53.520;10.104;2022-12-10T16:21:12;20.55;;;12.90;;
22270;SDS011;11304;53.520;10.104;2022-12-10T16:23:39;18.08;;;11.35;;